Terminal Aerodrome Forecast
Issued by NWS

Home | Current Version | Previous Version | Text Only | Print | Product List | Glossary On
Versions: 1 2 3 4 5 6 7 8 9 10 11 12 13 14 15 16 17 18 19 20 21 22 23 24 25 26 27 28 29 30 31 32 33 34
000
FTUS41 KBOX 152331
TAFFMH
TAF
KFMH 152331Z 1600/1624 00000KT 2SM -SN OVC030
     FM160100 00000KT 1SM -SN OVC010
     FM160600 30006KT P6SM OVC025
     FM160700 30010KT P6SM BKN040
     FM160900 29013G24KT P6SM SCT200=

USA.gov is the U.S. government's official web portal to all federal, state and local government web resources and services.